Five Points, North Carolina
Current Conditions -  °F | °C
As of 12:51 PM on Monday 26 Jan 2015 (Local Time) from KRDU Reporting Station
Overcast Overcast  
Wind Chill: 48°   Ceiling: 1200
Heat Index: 48°   Visibility: 10mi
Dew Point: 42°   Wind: 3mph
Humidity: 80%   Direction: 340°NNW
Pressure: 29.62"   Gusts: NA
Location:  35.8084°N, 78.6471°W
Report Text: KRDU 261751Z 34003KT 10SM BKN012 OVC042 09/06 A2962 RMK AO2 SLP029 60023 T00890056 10089 20039 58008
Loading
Personal Weather Stations






























Interactive Weather Map New forecast layout! Learn more

10-Day Weather Forecast

Advertisements
Track Severe Weather on mobile